Ninove, Belgium
Current Conditions -  °F | °C
As of 11:25 AM on Monday 22 Dec 2014 (Local Time) from EBCV Reporting Station
Overcast Overcast  
Wind Chill: 41°   Ceiling: 800
Heat Index: 48°   Visibility: 6mi
Dew Point: 46°   Wind: 22mph
Humidity: 93%   Direction: 210°SSW
Pressure: 30.24"   Gusts: NA
Location:  50.83°N, 4.03°E
Report Text: EBCV 221025Z AUTO 21019KT 9999 BKN008/// OVC010/// 09/08 Q1024 GRN
Loading
Personal Weather Stations






























Interactive Weather Map New forecast layout! Learn more

10-Day Weather Forecast

Advertisements
Track Severe Weather on mobile